createdAt,value
2019-05-19T00:01:41.927Z,17.37
2019-05-19T00:04:12.579Z,19.57
2019-05-19T00:06:43.275Z,20.75
2019-05-19T00:09:16.490Z,28.65
2019-05-19T00:11:45.987Z,25.95
2019-05-19T00:14:16.597Z,23.07
2019-05-19T00:16:48.370Z,23.45
2019-05-19T00:19:26.832Z,26.55
2019-05-19T00:21:51.078Z,24.80
2019-05-19T00:24:21.651Z,27.07
2019-05-19T00:26:52.234Z,30.77
2019-05-19T00:29:23.955Z,25.72
2019-05-19T00:31:54.535Z,27.32
2019-05-19T00:34:25.529Z,25.70
2019-05-19T00:36:56.808Z,32.15
2019-05-19T00:39:27.614Z,28.05
2019-05-19T00:41:58.561Z,27.62
2019-05-19T00:44:29.331Z,30.70
2019-05-19T00:47:00.164Z,29.10
2019-05-19T00:49:40.900Z,27.15
2019-05-19T00:52:02.903Z,30.72
2019-05-19T00:54:33.411Z,27.62
2019-05-19T00:57:04.965Z,27.70
2019-05-19T00:59:35.694Z,24.30
2019-05-19T01:02:06.261Z,26.77
2019-05-19T01:04:36.857Z,30.62
2019-05-19T01:07:07.337Z,27.50
2019-05-19T01:09:37.956Z,30.72
2019-05-19T01:12:08.947Z,32.75
2019-05-19T01:14:39.609Z,29.05
2019-05-19T01:17:10.509Z,27.30
2019-05-19T01:19:53.875Z,30.60
2019-05-19T01:22:14.046Z,30.17
2019-05-19T01:24:44.934Z,25.90
2019-05-19T01:27:15.531Z,30.43
2019-05-19T01:29:46.293Z,27.60
2019-05-19T01:32:16.753Z,29.55
2019-05-19T01:34:47.621Z,30.32
2019-05-19T01:37:18.531Z,30.85
2019-05-19T01:39:50.437Z,28.02
2019-05-19T01:42:21.221Z,28.92
2019-05-19T01:44:51.923Z,34.03
2019-05-19T01:47:23.661Z,29.35
2019-05-19T01:50:15.076Z,25.10
2019-05-19T01:52:27.987Z,28.30
2019-05-19T01:54:58.746Z,26.62
2019-05-19T01:57:29.622Z,27.22
2019-05-19T02:00:00.227Z,30.60
2019-05-19T02:02:31.035Z,33.40
2019-05-19T02:05:02.759Z,26.70
2019-05-19T02:07:33.346Z,25.55
2019-05-19T02:10:04.707Z,25.97
2019-05-19T02:12:35.372Z,29.85
2019-05-19T02:15:06.331Z,33.50
2019-05-19T02:17:37.145Z,29.50
2019-05-19T02:20:08.304Z,29.52
2019-05-19T02:22:39.361Z,25.50
2019-05-19T02:25:11.506Z,29.75
2019-05-19T02:27:42.530Z,29.67
2019-05-19T02:30:13.861Z,28.55
2019-05-19T02:32:44.378Z,31.50
2019-05-19T02:35:15.383Z,27.77
2019-05-19T02:37:46.176Z,29.25
2019-05-19T02:40:17.250Z,27.77
2019-05-19T02:42:49.914Z,27.07
2019-05-19T02:45:21.201Z,29.48
2019-05-19T02:47:52.642Z,26.75
2019-05-19T02:50:25.647Z,31.20
2019-05-19T02:52:57.692Z,30.37
2019-05-19T02:55:29.294Z,26.05
2019-05-19T02:58:01.564Z,28.02
2019-05-19T03:00:40.423Z,26.82
2019-05-19T03:03:12.220Z,25.08
2019-05-19T03:05:43.352Z,27.42
2019-05-19T03:08:14.058Z,24.30
2019-05-19T03:10:44.870Z,24.95
2019-05-19T03:13:15.601Z,26.23
2019-05-19T03:15:46.563Z,23.85
2019-05-19T03:18:17.436Z,25.72
2019-05-19T03:20:49.013Z,22.90
2019-05-19T03:23:20.112Z,22.52
2019-05-19T03:25:50.872Z,20.82
2019-05-19T03:28:21.985Z,23.73
2019-05-19T03:31:17.611Z,26.62
2019-05-19T03:33:49.970Z,28.73
2019-05-19T03:36:21.839Z,22.90
2019-05-19T03:38:52.605Z,23.38
2019-05-19T03:41:23.575Z,24.05
2019-05-19T03:43:54.312Z,21.65
2019-05-19T03:46:25.067Z,21.55
2019-05-19T03:48:55.813Z,19.77
2019-05-19T03:51:35.097Z,19.25
2019-05-19T03:54:05.704Z,21.95
2019-05-19T03:56:36.310Z,20.57
2019-05-19T03:59:06.908Z,26.12
2019-05-19T04:01:37.541Z,26.80
2019-05-19T04:04:08.074Z,25.72
2019-05-19T04:06:38.558Z,23.90
2019-05-19T04:09:10.382Z,22.82
2019-05-19T04:11:40.858Z,24.75
2019-05-19T04:14:11.523Z,21.77
2019-05-19T04:16:42.045Z,22.85
2019-05-19T04:19:12.503Z,22.45
2019-05-19T04:21:48.687Z,23.25
2019-05-19T04:24:15.456Z,24.02
2019-05-19T04:26:46.000Z,23.07
2019-05-19T04:29:16.456Z,26.27
2019-05-19T04:31:47.041Z,24.72
2019-05-19T04:34:17.571Z,24.92
2019-05-19T04:36:48.364Z,23.50
2019-05-19T04:39:18.891Z,27.07
2019-05-19T04:41:49.390Z,33.00
2019-05-19T04:44:19.925Z,24.30
2019-05-19T04:46:50.409Z,24.90
2019-05-19T04:49:21.120Z,26.20
2019-05-19T04:52:05.443Z,22.80
2019-05-19T04:54:23.879Z,27.55
2019-05-19T04:56:54.399Z,23.42
2019-05-19T04:59:24.906Z,24.52
2019-05-19T05:01:55.374Z,24.52
2019-05-19T05:04:29.343Z,22.60
2019-05-19T05:06:58.199Z,23.62
2019-05-19T05:09:28.714Z,27.80
2019-05-19T05:11:59.230Z,23.55
2019-05-19T05:14:30.314Z,24.77
2019-05-19T05:17:01.340Z,27.93
2019-05-19T05:19:32.937Z,24.92
2019-05-19T05:22:03.550Z,29.12
2019-05-19T05:24:34.090Z,22.77
2019-05-19T05:27:04.710Z,23.42
2019-05-19T05:29:35.248Z,25.43
2019-05-19T05:32:06.306Z,27.27
2019-05-19T05:34:37.010Z,25.10
2019-05-19T05:37:07.811Z,25.57
2019-05-19T05:39:38.643Z,23.50
2019-05-19T05:42:09.266Z,26.90
2019-05-19T05:44:39.900Z,20.50
2019-05-19T05:47:10.397Z,24.47
2019-05-19T05:49:41.077Z,26.05
2019-05-19T05:52:11.800Z,24.25
2019-05-19T05:54:43.065Z,24.43
2019-05-19T05:57:13.660Z,25.23
2019-05-19T05:59:44.289Z,23.52
2019-05-19T06:02:14.808Z,24.87
2019-05-19T06:04:46.096Z,23.52
2019-05-19T06:07:16.678Z,24.32
2019-05-19T06:09:47.253Z,24.57
2019-05-19T06:12:17.813Z,21.62
2019-05-19T06:14:48.436Z,22.67
2019-05-19T06:17:18.959Z,20.02
2019-05-19T06:19:49.609Z,23.05
2019-05-19T06:22:20.208Z,21.97
2019-05-19T06:24:50.882Z,19.48
2019-05-19T06:27:22.510Z,25.75
2019-05-19T06:29:53.121Z,21.93
2019-05-19T06:32:30.512Z,19.75
2019-05-19T06:35:01.639Z,22.90
2019-05-19T06:37:32.272Z,16.45
2019-05-19T06:40:02.997Z,21.48
2019-05-19T06:42:33.590Z,20.80
2019-05-19T06:45:04.996Z,20.68
2019-05-19T06:47:35.602Z,20.43
2019-05-19T06:50:06.902Z,19.32
2019-05-19T06:52:37.439Z,18.65
2019-05-19T06:55:08.495Z,20.32
2019-05-19T06:57:39.383Z,21.17
2019-05-19T07:00:10.740Z,22.50
2019-05-19T07:02:41.648Z,16.52
2019-05-19T07:05:12.544Z,17.52
2019-05-19T07:07:43.241Z,17.40
2019-05-19T07:10:14.912Z,18.27
2019-05-19T07:12:45.506Z,16.65
2019-05-19T07:15:16.289Z,16.90
2019-05-19T07:17:46.841Z,15.00
2019-05-19T07:20:17.398Z,17.52
2019-05-19T07:22:48.002Z,21.45
2019-05-19T07:25:18.558Z,17.90
2019-05-19T07:27:49.098Z,18.65
2019-05-19T07:30:19.959Z,14.43
2019-05-19T07:32:50.561Z,17.40
2019-05-19T07:35:21.286Z,18.30
2019-05-19T07:37:52.262Z,13.60
2019-05-19T07:40:23.184Z,12.98
2019-05-19T07:42:53.691Z,14.78
2019-05-19T07:45:24.375Z,13.93
2019-05-19T07:47:55.050Z,20.40
2019-05-19T07:50:25.564Z,20.65
2019-05-19T07:52:56.630Z,18.70
2019-05-19T07:55:27.292Z,15.50
2019-05-19T07:57:57.925Z,16.15
2019-05-19T08:00:28.505Z,13.62
2019-05-19T08:02:58.996Z,15.48
2019-05-19T08:05:30.523Z,14.50
2019-05-19T08:08:01.105Z,12.58
2019-05-19T08:10:31.735Z,12.75
2019-05-19T08:13:02.219Z,11.80
2019-05-19T08:15:32.723Z,10.35
2019-05-19T08:18:04.716Z,10.95
2019-05-19T08:20:35.261Z,12.60
2019-05-19T08:23:05.837Z,12.68
2019-05-19T08:25:36.348Z,12.75
2019-05-19T08:28:08.979Z,10.80
2019-05-19T08:30:39.026Z,11.93
2019-05-19T08:33:09.570Z,10.35
2019-05-19T08:35:40.031Z,10.88
2019-05-19T08:38:10.630Z,11.05
2019-05-19T08:40:42.275Z,11.12
2019-05-19T08:43:12.756Z,11.33
2019-05-19T08:45:43.192Z,10.80
2019-05-19T08:48:13.718Z,10.78
2019-05-19T08:50:44.181Z,9.78
2019-05-19T08:53:14.630Z,11.53
2019-05-19T08:55:45.109Z,9.38
2019-05-19T08:58:15.743Z,9.08
2019-05-19T09:00:46.244Z,9.10
2019-05-19T09:03:16.709Z,5.78
2019-05-19T09:05:47.999Z,6.40
2019-05-19T09:08:18.647Z,6.50
2019-05-19T09:10:49.137Z,5.87
2019-05-19T09:13:19.759Z,5.87
2019-05-19T09:15:50.325Z,6.17
2019-05-19T09:18:20.812Z,7.90
2019-05-19T09:20:51.476Z,4.33
2019-05-19T09:23:23.119Z,5.85
2019-05-19T09:25:53.671Z,6.50
2019-05-19T09:28:24.198Z,5.03
2019-05-19T09:30:54.724Z,6.50
2019-05-19T09:33:25.265Z,6.28
2019-05-19T09:35:55.829Z,5.08
2019-05-19T09:38:26.361Z,5.35
2019-05-19T09:40:56.847Z,7.45
2019-05-19T09:43:27.404Z,4.45
2019-05-19T09:45:58.961Z,6.10
2019-05-19T09:48:29.545Z,6.92
2019-05-19T09:51:00.029Z,8.45
2019-05-19T09:53:31.023Z,5.87
2019-05-19T09:56:01.588Z,5.90
2019-05-19T09:58:32.153Z,4.37
2019-05-19T10:01:02.644Z,3.50
2019-05-19T10:03:34.241Z,5.90
2019-05-19T10:06:05.100Z,4.87
2019-05-19T10:08:36.519Z,5.80
2019-05-19T10:11:39.613Z,3.70
2019-05-19T10:14:10.145Z,5.30
2019-05-19T10:16:40.686Z,5.83
2019-05-19T10:19:11.221Z,5.58
2019-05-19T10:21:41.677Z,6.83
2019-05-19T10:24:12.146Z,5.92
2019-05-19T10:26:42.606Z,4.47
2019-05-19T10:29:13.094Z,5.28
2019-05-19T10:31:43.695Z,5.65
2019-05-19T10:34:14.214Z,5.72
2019-05-19T10:36:44.785Z,6.87
2019-05-19T10:39:15.270Z,4.55
2019-05-19T10:41:45.932Z,4.72
2019-05-19T10:44:16.485Z,3.40
2019-05-19T10:46:47.052Z,5.75
2019-05-19T10:49:17.584Z,9.58
2019-05-19T10:51:48.133Z,6.33
2019-05-19T10:54:18.691Z,5.28
2019-05-19T10:56:49.244Z,4.95
2019-05-19T10:59:19.742Z,6.92
2019-05-19T11:01:51.265Z,3.37
2019-05-19T11:04:21.854Z,4.03
2019-05-19T11:06:52.463Z,4.10
2019-05-19T11:09:23.012Z,5.42
2019-05-19T11:11:52.800Z,6.53
2019-05-19T11:14:23.221Z,5.83
2019-05-19T11:16:53.700Z,4.33
2019-05-19T11:19:24.275Z,4.75
2019-05-19T11:21:54.793Z,3.37
2019-05-19T11:24:25.362Z,3.62
2019-05-19T11:26:55.834Z,4.20
2019-05-19T11:29:27.301Z,4.42
2019-05-19T11:31:57.734Z,4.33
2019-05-19T11:34:28.205Z,3.25
2019-05-19T11:36:58.651Z,2.55
2019-05-19T11:39:29.647Z,4.67
2019-05-19T11:42:00.234Z,4.20
2019-05-19T11:44:30.675Z,2.72
2019-05-19T11:47:01.438Z,5.22
2019-05-19T11:49:31.914Z,7.15
2019-05-19T11:52:02.389Z,3.58
2019-05-19T11:54:34.019Z,5.33
2019-05-19T11:57:04.496Z,3.87
2019-05-19T11:59:34.942Z,5.17
2019-05-19T12:02:05.506Z,5.62
2019-05-19T12:04:36.136Z,7.00
2019-05-19T12:07:07.163Z,5.67
2019-05-19T12:09:37.629Z,8.75
2019-05-19T12:12:08.157Z,4.42
2019-05-19T12:14:38.613Z,6.22
2019-05-19T12:17:09.165Z,5.05
2019-05-19T12:19:39.712Z,5.35
2019-05-19T12:22:10.221Z,3.85
2019-05-19T12:24:40.774Z,6.80
2019-05-19T12:27:11.244Z,6.65
2019-05-19T12:29:41.778Z,4.90
2019-05-19T12:32:12.263Z,4.40
2019-05-19T12:34:43.801Z,4.58
2019-05-19T12:37:14.483Z,6.53
2019-05-19T12:39:44.931Z,4.67
2019-05-19T12:42:15.419Z,4.97
2019-05-19T12:44:45.871Z,4.03
2019-05-19T12:47:16.345Z,3.87
2019-05-19T12:49:46.840Z,6.00
2019-05-19T12:52:17.326Z,5.17
2019-05-19T12:54:48.308Z,3.95
2019-05-19T12:57:21.174Z,4.53
2019-05-19T12:59:51.014Z,3.35
2019-05-19T13:02:21.494Z,4.22
2019-05-19T13:05:04.112Z,6.03
2019-05-19T13:07:24.221Z,4.33
2019-05-19T13:09:54.767Z,7.62
2019-05-19T13:12:25.299Z,7.20
2019-05-19T13:14:55.785Z,5.00
2019-05-19T13:17:26.276Z,10.82
2019-05-19T13:19:56.780Z,2.60
2019-05-19T13:22:28.530Z,3.83
2019-05-19T13:24:59.031Z,3.83
2019-05-19T13:27:29.555Z,2.83
2019-05-19T13:30:00.153Z,3.92
2019-05-19T13:32:30.622Z,2.50
2019-05-19T13:35:01.474Z,5.95
2019-05-19T13:37:32.145Z,3.67
2019-05-19T13:40:02.792Z,4.22
2019-05-19T13:42:33.508Z,4.08
2019-05-19T13:45:04.113Z,3.00
2019-05-19T13:47:34.642Z,4.42
2019-05-19T13:50:05.588Z,4.72
2019-05-19T13:52:36.023Z,3.52
2019-05-19T13:55:07.713Z,4.78
2019-05-19T13:57:38.315Z,5.42
2019-05-19T14:00:10.550Z,3.55
2019-05-19T14:02:41.367Z,3.85
2019-05-19T14:05:11.894Z,5.00
2019-05-19T14:07:42.503Z,3.90
2019-05-19T14:10:13.269Z,3.12
2019-05-19T14:12:43.753Z,3.35
2019-05-19T14:15:14.448Z,4.35
2019-05-19T14:17:44.985Z,4.33
2019-05-19T14:20:34.525Z,4.60
2019-05-19T14:23:05.113Z,2.98
2019-05-19T14:25:35.677Z,4.03
2019-05-19T14:28:05.569Z,5.28
2019-05-19T14:30:35.975Z,4.42
2019-05-19T14:33:06.497Z,6.50
2019-05-19T14:35:36.991Z,5.92
2019-05-19T14:38:07.603Z,6.37
2019-05-19T14:40:40.033Z,3.10
2019-05-19T14:43:10.987Z,3.33
2019-05-19T14:45:41.493Z,4.67
2019-05-19T14:48:12.139Z,5.20
2019-05-19T14:50:42.629Z,7.62
2019-05-19T14:53:13.259Z,6.37
2019-05-19T14:55:43.825Z,8.40
2019-05-19T14:58:14.423Z,9.03
2019-05-19T15:00:45.016Z,6.25
2019-05-19T15:03:15.516Z,9.50
2019-05-19T15:05:46.093Z,8.25
2019-05-19T15:08:16.589Z,4.47
2019-05-19T15:10:47.097Z,6.80
2019-05-19T15:13:17.671Z,7.12
2019-05-19T15:15:48.162Z,5.15
2019-05-19T15:18:18.690Z,7.50
2019-05-19T15:20:49.170Z,5.30
2019-05-19T15:23:19.656Z,7.95
2019-05-19T15:25:50.227Z,6.12
2019-05-19T15:28:20.861Z,5.67
2019-05-19T15:30:51.323Z,5.62
2019-05-19T15:33:22.053Z,5.20
2019-05-19T15:35:52.576Z,3.83
2019-05-19T15:38:23.078Z,4.85
2019-05-19T15:40:53.624Z,4.10
2019-05-19T15:43:24.230Z,4.70
2019-05-19T15:45:54.803Z,3.20
2019-05-19T15:48:25.385Z,4.12
2019-05-19T15:50:55.857Z,4.40
2019-05-19T15:53:26.428Z,5.83
2019-05-19T15:55:56.929Z,4.60
2019-05-19T15:58:27.444Z,3.90
2019-05-19T16:00:58.060Z,2.85
2019-05-19T16:03:28.712Z,6.35
2019-05-19T16:05:59.344Z,4.72
2019-05-19T16:08:29.832Z,4.20
2019-05-19T16:11:03.480Z,4.50
2019-05-19T16:13:34.054Z,5.72
2019-05-19T16:16:04.869Z,4.08
2019-05-19T16:18:35.534Z,4.10
2019-05-19T16:21:06.298Z,3.42
2019-05-19T16:23:36.794Z,4.08
2019-05-19T16:26:07.275Z,3.70
2019-05-19T16:28:38.846Z,2.12
2019-05-19T16:31:09.543Z,2.37
2019-05-19T16:33:40.052Z,4.87
2019-05-19T16:36:10.642Z,4.03
2019-05-19T16:38:41.203Z,2.60
2019-05-19T16:41:11.804Z,3.45
2019-05-19T16:43:42.375Z,2.72
2019-05-19T16:46:14.201Z,3.22
2019-05-19T16:48:44.765Z,2.52
2019-05-19T16:51:15.386Z,3.20
2019-05-19T16:53:47.728Z,3.72
2019-05-19T16:56:18.264Z,4.45
2019-05-19T16:58:48.820Z,4.10
2019-05-19T17:01:23.758Z,3.45
2019-05-19T17:03:54.352Z,3.10
2019-05-19T17:06:25.026Z,6.80
2019-05-19T17:08:55.557Z,2.80
2019-05-19T17:11:26.422Z,6.15
2019-05-19T17:13:56.983Z,3.52
2019-05-19T17:16:27.739Z,2.58
2019-05-19T17:18:58.274Z,5.72
2019-05-19T17:21:28.799Z,2.75
2019-05-19T17:23:59.344Z,2.77
2019-05-19T17:26:29.884Z,3.22
2019-05-19T17:29:01.181Z,3.65
2019-05-19T17:31:31.942Z,4.92
2019-05-19T17:34:02.722Z,4.12
2019-05-19T17:36:33.249Z,4.95
2019-05-19T17:39:04.730Z,4.00
2019-05-19T17:41:35.754Z,2.67
2019-05-19T17:44:06.369Z,2.17
2019-05-19T17:46:36.868Z,3.08
2019-05-19T17:49:10.403Z,2.70
2019-05-19T17:51:40.981Z,2.90
2019-05-19T17:54:11.630Z,3.42
2019-05-19T17:56:42.948Z,5.42
2019-05-19T17:59:16.782Z,4.40
2019-05-19T18:01:47.427Z,5.62
2019-05-19T18:04:18.041Z,8.45
2019-05-19T18:06:48.632Z,11.88
2019-05-19T18:09:20.194Z,7.28
2019-05-19T18:11:50.824Z,8.25
2019-05-19T18:14:21.374Z,6.22
2019-05-19T18:16:51.968Z,6.25
2019-05-19T18:19:22.502Z,3.27
2019-05-19T18:21:53.001Z,5.33
2019-05-19T18:24:23.637Z,5.33
2019-05-19T18:26:54.527Z,6.33
2019-05-19T18:29:31.448Z,4.25
2019-05-19T18:31:57.114Z,5.47
2019-05-19T18:34:27.591Z,5.72
2019-05-19T18:36:58.165Z,4.15
2019-05-19T18:39:28.682Z,3.58
2019-05-19T18:41:59.275Z,4.03
2019-05-19T18:44:30.837Z,5.60
2019-05-19T18:47:01.476Z,6.47
2019-05-19T18:49:32.076Z,5.47
2019-05-19T18:52:02.655Z,5.05
2019-05-19T18:54:33.224Z,5.00
2019-05-19T18:57:03.760Z,8.00
2019-05-19T18:59:46.446Z,9.13
2019-05-19T19:02:06.580Z,5.55
2019-05-19T19:04:37.150Z,5.97
2019-05-19T19:07:07.691Z,3.42
2019-05-19T19:09:38.311Z,4.12
2019-05-19T19:12:08.174Z,4.40
2019-05-19T19:14:38.691Z,4.67
2019-05-19T19:17:10.246Z,3.90
2019-05-19T19:19:40.789Z,4.83
2019-05-19T19:22:11.300Z,6.55
2019-05-19T19:24:41.822Z,4.12
2019-05-19T19:27:12.332Z,4.72
2019-05-19T19:29:42.902Z,5.33
2019-05-19T19:32:13.401Z,5.03
2019-05-19T19:34:44.664Z,5.42
2019-05-19T19:37:15.286Z,7.03
2019-05-19T19:39:45.897Z,16.97
2019-05-19T19:42:16.325Z,9.45
2019-05-19T19:44:46.990Z,5.60
2019-05-19T19:47:17.529Z,8.30
2019-05-19T19:49:48.100Z,7.65
2019-05-19T19:52:18.663Z,7.30
2019-05-19T19:54:49.256Z,7.37
2019-05-19T19:57:19.862Z,6.35
2019-05-19T19:59:50.468Z,8.35
2019-05-19T20:02:21.061Z,5.50
2019-05-19T20:04:51.602Z,12.95
2019-05-19T20:07:22.445Z,7.42
2019-05-19T20:09:54.311Z,7.60
2019-05-19T20:12:25.086Z,9.45
2019-05-19T20:14:55.578Z,10.55
2019-05-19T20:17:27.686Z,6.90
2019-05-19T20:19:58.234Z,6.78
2019-05-19T20:22:28.751Z,8.03
2019-05-19T20:24:59.293Z,10.32
2019-05-19T20:27:29.966Z,8.05
2019-05-19T20:30:00.485Z,10.93
2019-05-19T20:32:31.008Z,8.05
2019-05-19T20:35:01.479Z,6.15
2019-05-19T20:37:32.168Z,7.70
2019-05-19T20:40:02.712Z,6.30
2019-05-19T20:42:33.335Z,8.25
2019-05-19T20:45:04.238Z,8.15
2019-05-19T20:47:34.868Z,7.35
2019-05-19T20:50:05.674Z,8.93
2019-05-19T20:52:36.284Z,7.37
2019-05-19T20:55:07.101Z,6.08
2019-05-19T20:57:39.625Z,7.25
2019-05-19T21:00:14.754Z,6.60
2019-05-19T21:02:45.374Z,7.45
2019-05-19T21:05:15.975Z,9.40
2019-05-19T21:07:46.591Z,9.10
2019-05-19T21:10:18.691Z,7.80
2019-05-19T21:12:49.273Z,9.28
2019-05-19T21:15:19.777Z,9.00
2019-05-19T21:17:50.309Z,11.03
2019-05-19T21:20:20.968Z,10.60
2019-05-19T21:22:51.633Z,11.95
2019-05-19T21:25:22.206Z,10.20
2019-05-19T21:27:52.710Z,12.00
2019-05-19T21:30:23.218Z,14.20
2019-05-19T21:32:53.845Z,13.75
2019-05-19T21:35:24.427Z,15.60
2019-05-19T21:37:54.888Z,16.97
2019-05-19T21:40:25.836Z,14.98
2019-05-19T21:42:57.988Z,17.92
2019-05-19T21:45:29.535Z,16.70
2019-05-19T21:48:01.393Z,15.75
2019-05-19T21:50:32.053Z,18.60
2019-05-19T21:53:02.646Z,19.40
2019-05-19T21:55:33.138Z,24.95
2019-05-19T21:58:03.685Z,23.35
2019-05-19T22:00:34.155Z,27.32
2019-05-19T22:03:05.161Z,33.10
2019-05-19T22:05:35.689Z,30.20
2019-05-19T22:08:10.124Z,35.00
2019-05-19T22:10:40.707Z,31.35
2019-05-19T22:13:11.247Z,28.15
2019-05-19T22:15:41.830Z,29.02
2019-05-19T22:18:12.511Z,28.02
2019-05-19T22:20:43.271Z,26.52
2019-05-19T22:23:13.949Z,29.98
2019-05-19T22:25:44.795Z,30.52
2019-05-19T22:28:20.419Z,28.90
2019-05-19T22:30:51.147Z,25.57
2019-05-19T22:33:21.704Z,26.27
2019-05-19T22:35:52.293Z,25.70
2019-05-19T22:38:22.916Z,26.30
2019-05-19T22:40:53.452Z,20.35
2019-05-19T22:43:24.005Z,19.55
2019-05-19T22:45:54.609Z,18.15
2019-05-19T22:48:25.118Z,18.20
2019-05-19T22:50:55.668Z,20.75
2019-05-19T22:53:26.308Z,16.95
2019-05-19T22:55:56.947Z,18.15
2019-05-19T22:58:27.467Z,15.85
2019-05-19T23:00:58.598Z,19.20
2019-05-19T23:03:29.133Z,20.08
2019-05-19T23:06:00.780Z,19.70
2019-05-19T23:08:31.607Z,20.27
2019-05-19T23:11:02.184Z,19.92
2019-05-19T23:13:44.618Z,20.43
2019-05-19T23:16:15.485Z,19.48
2019-05-19T23:18:46.089Z,18.48
2019-05-19T23:21:16.602Z,20.00
2019-05-19T23:23:47.112Z,19.75
2019-05-19T23:26:17.631Z,17.90
2019-05-19T23:28:48.360Z,17.25
2019-05-19T23:31:18.976Z,23.87
2019-05-19T23:33:49.474Z,18.17
2019-05-19T23:36:20.127Z,19.57
2019-05-19T23:38:50.969Z,15.38
2019-05-19T23:41:21.673Z,14.00
2019-05-19T23:43:52.191Z,15.00
2019-05-19T23:46:22.820Z,12.95
2019-05-19T23:48:53.547Z,11.10
2019-05-19T23:51:24.100Z,8.03
2019-05-19T23:53:54.629Z,8.85
2019-05-19T23:56:28.692Z,9.38
2019-05-19T23:59:01.101Z,11.40
